createdAt,value
2023-01-02T00:02:26.027Z,12.49
2023-01-02T00:04:55.818Z,11.29
2023-01-02T00:07:24.336Z,12.45
2023-01-02T00:09:52.750Z,12.54
2023-01-02T00:12:21.793Z,12.52
2023-01-02T00:14:56.209Z,12.46
2023-01-02T00:17:24.748Z,10.71
2023-01-02T00:19:53.199Z,11.99
2023-01-02T00:22:21.635Z,12.61
2023-01-02T00:24:50.081Z,12.64
2023-01-02T00:27:18.514Z,12.66
2023-01-02T00:29:47.494Z,12.67
2023-01-02T00:32:19.047Z,12.04
2023-01-02T00:34:56.314Z,10.96
2023-01-02T00:37:27.162Z,12.66
2023-01-02T00:39:55.588Z,12.66
2023-01-02T00:42:24.001Z,12.63
2023-01-02T00:44:52.486Z,12.63
2023-01-02T00:47:24.379Z,12.62
2023-01-02T00:49:52.821Z,12.62
2023-01-02T00:52:21.161Z,12.61
2023-01-02T00:54:51.810Z,12.63
2023-01-02T00:57:20.393Z,12.61
2023-01-02T00:59:48.783Z,12.58
2023-01-02T01:02:17.391Z,12.45
2023-01-02T01:04:47.376Z,12.57
2023-01-02T01:07:15.819Z,12.57
2023-01-02T01:09:44.218Z,11.82
2023-01-02T01:12:12.908Z,12.50
2023-01-02T01:14:41.334Z,11.40
2023-01-02T01:17:10.089Z,12.60
2023-01-02T01:19:38.597Z,12.09
2023-01-02T01:22:08.688Z,12.62
2023-01-02T01:24:37.172Z,12.66
2023-01-02T01:27:05.710Z,12.71
2023-01-02T01:29:34.178Z,12.72
2023-01-02T01:32:02.761Z,12.73
2023-01-02T01:34:31.309Z,12.36
2023-01-02T01:37:02.130Z,12.78
2023-01-02T01:39:31.926Z,12.80
2023-01-02T01:42:01.024Z,12.80
2023-01-02T01:44:52.003Z,12.67
2023-01-02T01:47:41.879Z,12.80
2023-01-02T01:50:17.562Z,12.81
2023-01-02T01:52:52.752Z,12.36
2023-01-02T01:55:27.491Z,12.82
2023-01-02T01:58:00.269Z,11.98
2023-01-02T02:00:31.535Z,12.96
2023-01-02T02:03:08.040Z,12.99
2023-01-02T02:05:37.833Z,12.70
2023-01-02T02:08:20.022Z,13.01
2023-01-02T02:10:51.584Z,13.03
2023-01-02T02:13:20.469Z,13.06
2023-01-02T02:16:04.293Z,13.06
2023-01-02T02:19:04.717Z,12.79
2023-01-02T02:22:02.508Z,13.10
2023-01-02T02:25:17.925Z,13.11
2023-01-02T02:28:29.865Z,13.08
2023-01-02T02:31:13.011Z,13.01
2023-01-02T02:33:55.663Z,13.13
2023-01-02T02:36:35.695Z,13.11
2023-01-02T02:39:19.374Z,13.09
2023-01-02T02:41:58.639Z,13.07
2023-01-02T02:44:41.945Z,13.08
2023-01-02T02:47:23.181Z,13.00
2023-01-02T02:50:03.890Z,12.84
2023-01-02T02:52:41.412Z,13.18
2023-01-02T02:55:16.440Z,13.20
2023-01-02T02:57:47.632Z,13.23
2023-01-02T03:00:20.095Z,13.25
2023-01-02T03:02:50.117Z,13.25
2023-01-02T03:05:26.687Z,13.24
2023-01-02T03:08:05.016Z,13.13
2023-01-02T03:10:48.159Z,13.26
2023-01-02T03:13:26.496Z,13.23
2023-01-02T03:16:06.273Z,13.23
2023-01-02T03:18:43.007Z,13.23
2023-01-02T03:21:18.252Z,13.25
2023-01-02T03:23:50.934Z,13.08
2023-01-02T03:26:27.676Z,12.86
2023-01-02T03:29:10.373Z,13.27
2023-01-02T03:31:45.077Z,13.28
2023-01-02T03:34:22.549Z,13.28
2023-01-02T03:36:56.879Z,13.28
2023-01-02T03:39:32.308Z,13.26
2023-01-02T03:42:08.813Z,13.08
2023-01-02T03:44:45.568Z,13.23
2023-01-02T03:47:28.829Z,13.20
2023-01-02T03:50:04.113Z,13.21
2023-01-02T03:52:32.681Z,13.12
2023-01-02T03:55:02.724Z,12.20
2023-01-02T03:57:44.338Z,13.21
2023-01-02T04:00:18.353Z,13.23
2023-01-02T04:02:57.896Z,13.22
2023-01-02T04:05:39.781Z,13.25
2023-01-02T04:08:18.341Z,13.22
2023-01-02T04:10:56.297Z,13.22
2023-01-02T04:13:33.624Z,12.36
2023-01-02T04:16:04.176Z,13.19
2023-01-02T04:18:46.414Z,12.45
2023-01-02T04:21:23.109Z,12.78
2023-01-02T04:24:00.135Z,13.14
2023-01-02T04:26:36.239Z,13.11
2023-01-02T04:29:05.340Z,13.08
2023-01-02T04:31:44.366Z,12.80
2023-01-02T04:34:18.270Z,12.82
2023-01-02T04:36:48.261Z,13.05
2023-01-02T04:39:16.739Z,13.10
2023-01-02T04:41:45.193Z,13.11
2023-01-02T04:44:13.614Z,13.13
2023-01-02T04:46:42.020Z,13.11
2023-01-02T04:49:11.188Z,13.11
2023-01-02T04:51:39.875Z,13.11
2023-01-02T04:54:13.257Z,13.10
2023-01-02T04:56:42.880Z,13.12
2023-01-02T04:59:31.039Z,12.51
2023-01-02T05:02:00.056Z,13.09
2023-01-02T05:04:30.717Z,12.05
2023-01-02T05:06:59.667Z,13.05
2023-01-02T05:09:29.556Z,13.04
2023-01-02T05:11:58.183Z,12.93
2023-01-02T05:14:27.961Z,12.80
2023-01-02T05:16:56.458Z,13.03
2023-01-02T05:19:24.883Z,13.00
2023-01-02T05:22:10.756Z,12.98
2023-01-02T05:24:40.545Z,12.93
2023-01-02T05:27:09.006Z,12.91
2023-01-02T05:29:40.400Z,12.87
2023-01-02T05:32:08.885Z,12.83
2023-01-02T05:34:37.319Z,12.76
2023-01-02T05:37:05.785Z,12.72
2023-01-02T05:39:34.180Z,12.68
2023-01-02T05:42:04.094Z,12.44
2023-01-02T05:44:32.565Z,12.47
2023-01-02T05:47:01.997Z,12.09
2023-01-02T05:49:30.458Z,12.32
2023-01-02T05:51:58.922Z,12.27
2023-01-02T05:54:27.349Z,12.24
2023-01-02T05:56:57.630Z,12.23
2023-01-02T05:59:27.458Z,12.31
2023-01-02T06:01:57.298Z,12.33
2023-01-02T06:04:39.112Z,12.38
2023-01-02T06:07:07.751Z,11.71
2023-01-02T06:09:36.181Z,11.26
2023-01-02T06:12:05.455Z,12.53
2023-01-02T06:14:35.256Z,12.59
2023-01-02T06:17:03.876Z,12.63
2023-01-02T06:19:35.130Z,12.65
2023-01-02T06:22:03.528Z,12.66
2023-01-02T06:24:31.983Z,11.70
2023-01-02T06:27:00.700Z,12.71
2023-01-02T06:29:30.834Z,12.74
2023-01-02T06:32:00.666Z,12.77
2023-01-02T06:34:29.102Z,12.77
2023-01-02T06:36:57.535Z,12.77
2023-01-02T06:39:27.439Z,12.74
2023-01-02T06:41:56.013Z,12.72
2023-01-02T06:44:24.469Z,12.71
2023-01-02T06:46:53.218Z,12.70
2023-01-02T06:49:23.195Z,12.54
2023-01-02T06:52:00.175Z,12.60
2023-01-02T06:54:29.024Z,12.43
2023-01-02T06:56:57.462Z,12.64
2023-01-02T06:59:27.594Z,12.61
2023-01-02T07:01:56.178Z,12.50
2023-01-02T07:04:26.027Z,12.54
2023-01-02T07:06:54.466Z,12.53
2023-01-02T07:09:22.893Z,12.56
2023-01-02T07:11:51.573Z,12.16
2023-01-02T07:14:20.243Z,12.55
2023-01-02T07:16:48.679Z,12.56
2023-01-02T07:19:17.597Z,12.55
2023-01-02T07:21:47.472Z,12.55
2023-01-02T07:24:17.021Z,12.59
2023-01-02T07:26:45.557Z,12.24
2023-01-02T07:29:14.612Z,12.58
2023-01-02T07:31:43.077Z,12.59
2023-01-02T07:34:11.817Z,11.80
2023-01-02T07:36:40.389Z,12.62
2023-01-02T07:39:10.418Z,12.62
2023-01-02T07:41:38.855Z,12.67
2023-01-02T07:44:15.284Z,12.33
2023-01-02T07:46:44.252Z,12.20
2023-01-02T07:49:13.521Z,12.93
2023-01-02T07:51:42.167Z,12.64
2023-01-02T07:54:11.972Z,13.03
2023-01-02T07:56:40.429Z,12.68
2023-01-02T07:59:09.133Z,13.14
2023-01-02T08:01:37.903Z,12.91
2023-01-02T08:04:06.392Z,13.29
2023-01-02T08:06:37.584Z,12.94
2023-01-02T08:09:07.442Z,12.83
2023-01-02T08:11:43.848Z,12.76
2023-01-02T08:14:23.450Z,12.98
2023-01-02T08:17:01.020Z,13.47
2023-01-02T08:19:29.481Z,13.64
2023-01-02T08:21:57.824Z,13.67
2023-01-02T08:24:26.242Z,13.71
2023-01-02T08:26:55.965Z,13.74
2023-01-02T08:29:24.344Z,13.77
2023-01-02T08:31:52.706Z,12.90
2023-01-02T08:34:21.563Z,13.36
2023-01-02T08:36:49.990Z,13.80
2023-01-02T08:39:18.423Z,13.95
2023-01-02T08:41:46.803Z,13.97
2023-01-02T08:44:17.282Z,13.97
2023-01-02T08:46:46.071Z,13.95
2023-01-02T08:49:14.509Z,13.92
2023-01-02T08:51:43.925Z,13.81
2023-01-02T08:54:12.383Z,13.84
2023-01-02T08:56:41.507Z,13.73
2023-01-02T08:59:13.696Z,14.15
2023-01-02T09:01:43.855Z,13.98
2023-01-02T09:04:13.525Z,14.12
2023-01-02T09:06:45.388Z,14.52
2023-01-02T09:09:16.613Z,14.62
2023-01-02T09:11:50.403Z,14.29
2023-01-02T09:14:21.841Z,14.12
2023-01-02T09:16:53.943Z,14.55
2023-01-02T09:19:23.013Z,14.11
2023-01-02T09:21:54.074Z,14.51
2023-01-02T09:24:22.523Z,14.39
2023-01-02T09:26:50.931Z,14.63
2023-01-02T09:29:22.615Z,14.69
2023-01-02T09:31:52.419Z,14.72
2023-01-02T09:34:20.843Z,14.74
2023-01-02T09:36:49.363Z,14.39
2023-01-02T09:39:18.031Z,14.73
2023-01-02T09:41:52.185Z,14.50
2023-01-02T09:44:27.248Z,14.72
2023-01-02T09:47:02.139Z,14.65
2023-01-02T09:49:42.302Z,14.59
2023-01-02T09:52:20.347Z,14.74
2023-01-02T09:54:49.723Z,14.76
2023-01-02T09:57:38.011Z,14.57
2023-01-02T10:00:15.935Z,14.76
2023-01-02T10:03:08.522Z,14.73
2023-01-02T10:06:02.411Z,14.73
2023-01-02T10:08:43.376Z,14.68
2023-01-02T10:11:31.069Z,14.75
2023-01-02T10:14:20.633Z,14.34
2023-01-02T10:16:56.114Z,14.76
2023-01-02T10:19:41.884Z,14.78
2023-01-02T10:22:16.533Z,14.66
2023-01-02T10:24:53.161Z,14.95
2023-01-02T10:27:31.069Z,15.09
2023-01-02T10:30:14.855Z,15.21
2023-01-02T10:32:49.044Z,15.09
2023-01-02T10:35:35.799Z,15.19
2023-01-02T10:38:04.951Z,15.17
2023-01-02T10:40:35.018Z,15.21
2023-01-02T10:43:03.836Z,15.26
2023-01-02T10:45:34.544Z,15.30
2023-01-02T10:48:05.360Z,14.66
2023-01-02T10:50:43.275Z,15.29
2023-01-02T10:53:24.092Z,15.31
2023-01-02T10:55:52.546Z,15.32
2023-01-02T10:58:25.279Z,14.94
2023-01-02T11:01:06.110Z,15.41
2023-01-02T11:03:35.415Z,15.45
2023-01-02T11:06:30.076Z,15.43
2023-01-02T11:09:03.600Z,15.52
2023-01-02T11:11:33.963Z,15.35
2023-01-02T11:14:11.512Z,15.03
2023-01-02T11:16:42.764Z,15.00
2023-01-02T11:19:29.118Z,15.07
2023-01-02T11:21:59.658Z,14.99
2023-01-02T11:24:28.681Z,14.95
2023-01-02T11:27:02.869Z,14.31
2023-01-02T11:29:36.045Z,14.78
2023-01-02T11:32:06.194Z,14.68
2023-01-02T11:34:38.367Z,14.63
2023-01-02T11:37:18.074Z,14.60
2023-01-02T11:40:02.833Z,14.22
2023-01-02T11:42:58.529Z,14.67
2023-01-02T11:45:27.978Z,14.77
2023-01-02T11:48:02.731Z,14.36
2023-01-02T11:50:35.598Z,15.00
2023-01-02T11:53:18.976Z,14.33
2023-01-02T11:55:55.690Z,15.36
2023-01-02T11:58:41.965Z,15.46
2023-01-02T12:01:26.829Z,15.03
2023-01-02T12:03:56.198Z,15.39
2023-01-02T12:06:33.743Z,15.66
2023-01-02T12:09:12.366Z,15.73
2023-01-02T12:12:06.599Z,15.76
2023-01-02T12:15:04.705Z,15.74
2023-01-02T12:17:46.939Z,15.71
2023-01-02T12:20:43.194Z,15.20
2023-01-02T12:23:53.382Z,15.58
2023-01-02T12:26:33.541Z,15.52
2023-01-02T12:29:48.817Z,15.45
2023-01-02T12:32:58.358Z,15.40
2023-01-02T12:36:06.117Z,15.29
2023-01-02T12:38:55.687Z,15.35
2023-01-02T12:41:35.522Z,15.37
2023-01-02T12:44:47.116Z,15.37
2023-01-02T12:47:39.600Z,15.27
2023-01-02T12:50:54.949Z,15.41
2023-01-02T12:53:48.151Z,15.38
2023-01-02T12:56:46.627Z,15.05
2023-01-02T12:59:49.984Z,15.17
2023-01-02T13:02:42.173Z,14.03
2023-01-02T13:05:17.938Z,15.11
2023-01-02T13:07:54.114Z,15.14
2023-01-02T13:10:28.151Z,15.15
2023-01-02T13:13:01.741Z,15.12
2023-01-02T13:15:35.446Z,14.77
2023-01-02T13:18:11.610Z,14.84
2023-01-02T13:20:52.114Z,14.87
2023-01-02T13:23:39.693Z,14.80
2023-01-02T13:26:14.084Z,14.79
2023-01-02T13:28:53.203Z,14.77
2023-01-02T13:34:22.152Z,14.63
2023-01-02T13:36:58.768Z,14.45
2023-01-02T13:39:33.751Z,14.50
2023-01-02T13:42:22.914Z,14.04
2023-01-02T13:44:57.280Z,14.43
2023-01-02T13:47:34.751Z,13.89
2023-01-02T13:50:16.379Z,14.31
2023-01-02T13:53:08.120Z,14.28
2023-01-02T13:55:38.249Z,14.13
2023-01-02T13:58:41.534Z,14.13
2023-01-02T14:02:15.176Z,13.65
2023-01-02T14:04:44.105Z,14.11
2023-01-02T14:07:49.216Z,14.05
2023-01-02T14:10:34.753Z,14.14
2023-01-02T14:13:17.603Z,14.08
2023-01-02T14:16:41.199Z,14.03
2023-01-02T14:19:24.902Z,13.98
2023-01-02T14:22:05.168Z,13.97
2023-01-02T14:24:38.866Z,13.59
2023-01-02T14:27:21.310Z,13.37
2023-01-02T14:29:54.689Z,13.93
2023-01-02T14:32:36.455Z,13.56
2023-01-02T14:35:25.684Z,13.88
2023-01-02T14:38:07.291Z,13.86
2023-01-02T14:40:39.745Z,13.85
2023-01-02T14:43:32.503Z,13.83
2023-01-02T14:46:11.803Z,13.45
2023-01-02T14:48:54.900Z,13.83
2023-01-02T14:51:34.012Z,13.82
2023-01-02T14:54:15.643Z,13.78
2023-01-02T14:56:50.054Z,13.76
2023-01-02T14:59:28.202Z,13.58
2023-01-02T15:02:04.416Z,12.88
2023-01-02T15:04:40.303Z,13.63
2023-01-02T15:07:18.557Z,13.57
2023-01-02T15:09:52.649Z,13.48
2023-01-02T15:12:46.756Z,13.35
2023-01-02T15:15:18.997Z,13.45
2023-01-02T15:17:50.175Z,13.42
2023-01-02T15:20:21.988Z,13.25
2023-01-02T15:22:54.717Z,13.40
2023-01-02T15:25:35.215Z,13.39
2023-01-02T15:28:09.147Z,13.37
2023-01-02T15:30:40.091Z,13.34
2023-01-02T15:33:29.997Z,13.32
2023-01-02T15:36:03.146Z,13.29
2023-01-02T15:38:33.555Z,12.51
2023-01-02T15:41:02.091Z,12.63
2023-01-02T15:43:52.243Z,12.33
2023-01-02T15:46:24.024Z,13.05
2023-01-02T15:48:54.028Z,11.78
2023-01-02T15:51:41.463Z,12.96
2023-01-02T15:54:18.647Z,12.97
2023-01-02T15:56:49.085Z,12.95
2023-01-02T15:59:30.604Z,12.93
2023-01-02T16:01:59.097Z,12.88
2023-01-02T16:04:30.405Z,12.80
2023-01-02T16:07:02.282Z,12.76
2023-01-02T16:09:32.979Z,11.76
2023-01-02T16:12:05.719Z,12.72
2023-01-02T16:14:51.355Z,12.70
2023-01-02T16:17:27.280Z,12.52
2023-01-02T16:20:03.058Z,12.76
2023-01-02T16:22:43.007Z,11.91
2023-01-02T16:25:20.365Z,12.79
2023-01-02T16:27:54.965Z,12.23
2023-01-02T16:30:43.322Z,12.77
2023-01-02T16:33:28.104Z,12.78
2023-01-02T16:36:21.742Z,10.53
2023-01-02T16:39:14.577Z,12.03
2023-01-02T16:42:15.217Z,12.45
2023-01-02T16:44:54.982Z,12.62
2023-01-02T16:47:25.697Z,12.66
2023-01-02T16:49:58.643Z,12.37
2023-01-02T16:52:33.903Z,12.68
2023-01-02T16:55:03.861Z,12.63
2023-01-02T16:57:33.989Z,12.69
2023-01-02T17:00:02.458Z,12.69
2023-01-02T17:02:31.331Z,12.68
2023-01-02T17:04:59.931Z,12.42
2023-01-02T17:07:32.016Z,10.80
2023-01-02T17:10:03.815Z,12.89
2023-01-02T17:13:04.604Z,12.24
2023-01-02T17:15:48.888Z,13.14
2023-01-02T17:18:22.029Z,13.27
2023-01-02T17:20:52.746Z,13.23
2023-01-02T17:23:22.544Z,13.65
2023-01-02T17:25:52.939Z,13.78
2023-01-02T17:28:29.707Z,13.67
2023-01-02T17:31:05.178Z,13.94
2023-01-02T17:33:38.865Z,12.13
2023-01-02T17:36:27.794Z,13.42
2023-01-02T17:38:58.910Z,13.59
2023-01-02T17:41:39.869Z,13.28
2023-01-02T17:44:32.126Z,12.34
2023-01-02T17:47:48.299Z,14.02
2023-01-02T17:50:09.918Z,12.47
2023-01-02T17:52:41.263Z,14.24
2023-01-02T17:55:10.959Z,14.11
2023-01-02T17:57:50.776Z,14.17
2023-01-02T18:00:51.224Z,12.53
2023-01-02T18:03:32.230Z,13.72
2023-01-02T18:06:12.003Z,12.27
2023-01-02T18:08:46.918Z,13.98
2023-01-02T18:11:18.921Z,14.11
2023-01-02T18:13:51.623Z,14.25
2023-01-02T18:16:29.481Z,13.20
2023-01-02T18:18:58.165Z,13.52
2023-01-02T18:21:32.437Z,14.34
2023-01-02T18:24:09.248Z,14.19
2023-01-02T18:26:40.141Z,13.91
2023-01-02T18:29:25.351Z,14.13
2023-01-02T18:31:56.120Z,14.14
2023-01-02T18:34:47.798Z,14.03
2023-01-02T18:37:24.824Z,13.58
2023-01-02T18:40:06.659Z,12.39
2023-01-02T18:42:38.482Z,13.38
2023-01-02T18:45:19.193Z,13.96
2023-01-02T18:47:59.399Z,13.37
2023-01-02T18:50:49.597Z,13.83
2023-01-02T18:53:45.539Z,11.78
2023-01-02T18:56:19.663Z,12.71
2023-01-02T18:59:00.708Z,13.08
2023-01-02T19:01:33.963Z,12.67
2023-01-02T19:04:28.330Z,12.82
2023-01-02T19:07:00.465Z,13.51
2023-01-02T19:09:38.208Z,11.84
2023-01-02T19:12:43.918Z,12.84
2023-01-02T19:15:46.758Z,13.23
2023-01-02T19:18:38.151Z,12.45
2023-01-02T19:21:29.085Z,12.79
2023-01-02T19:24:02.240Z,12.92
2023-01-02T19:26:42.440Z,12.85
2023-01-02T19:29:25.715Z,12.08
2023-01-02T19:32:07.092Z,12.41
2023-01-02T19:34:51.000Z,12.64
2023-01-02T19:37:46.933Z,12.50
2023-01-02T19:40:23.190Z,12.51
2023-01-02T19:42:53.983Z,11.61
2023-01-02T19:45:28.223Z,11.39
2023-01-02T19:47:59.976Z,12.43
2023-01-02T19:50:30.702Z,11.58
2023-01-02T19:53:01.194Z,10.91
2023-01-02T19:55:32.687Z,11.76
2023-01-02T19:58:04.836Z,11.15
2023-01-02T20:00:35.413Z,11.92
2023-01-02T20:03:04.016Z,12.24
2023-01-02T20:05:43.329Z,11.92
2023-01-02T20:08:15.128Z,11.26
2023-01-02T20:10:45.717Z,11.85
2023-01-02T20:13:14.609Z,11.90
2023-01-02T20:15:43.571Z,11.74
2023-01-02T20:18:12.199Z,11.69
2023-01-02T20:20:42.678Z,11.48
2023-01-02T20:23:12.012Z,11.34
2023-01-02T20:25:43.706Z,11.37
2023-01-02T20:28:12.972Z,11.31
2023-01-02T20:30:44.156Z,11.23
2023-01-02T20:33:15.208Z,11.19
2023-01-02T20:35:53.433Z,10.86
2023-01-02T20:38:24.818Z,11.14
2023-01-02T20:40:54.808Z,10.91
2023-01-02T20:43:23.461Z,11.09
2023-01-02T20:45:54.347Z,11.06
2023-01-02T20:48:22.881Z,11.02
2023-01-02T20:50:51.396Z,11.00
2023-01-02T20:53:22.221Z,10.80
2023-01-02T20:55:54.509Z,11.00
2023-01-02T20:58:23.809Z,11.01
2023-01-02T21:00:52.532Z,10.77
2023-01-02T21:03:21.617Z,10.98
2023-01-02T21:05:50.049Z,10.93
2023-01-02T21:08:18.817Z,10.92
2023-01-02T21:10:48.988Z,10.79
2023-01-02T21:13:19.987Z,10.81
2023-01-02T21:15:52.011Z,10.80
2023-01-02T21:18:25.085Z,10.29
2023-01-02T21:20:57.153Z,10.82
2023-01-02T21:23:29.398Z,10.81
2023-01-02T21:25:59.819Z,10.68
2023-01-02T21:28:29.875Z,10.75
2023-01-02T21:30:58.572Z,10.72
2023-01-02T21:33:30.088Z,10.69
2023-01-02T21:36:01.047Z,10.63
2023-01-02T21:38:30.047Z,10.27
2023-01-02T21:41:21.483Z,10.38
2023-01-02T21:43:51.855Z,10.58
2023-01-02T21:46:20.376Z,10.57
2023-01-02T21:48:48.789Z,10.42
2023-01-02T21:51:17.243Z,10.43
2023-01-02T21:53:45.842Z,9.95
2023-01-02T21:56:14.751Z,10.53
2023-01-02T21:58:44.161Z,10.53
2023-01-02T22:01:14.076Z,10.34
2023-01-02T22:03:43.496Z,10.46
2023-01-02T22:06:12.221Z,10.45
2023-01-02T22:08:40.638Z,10.45
2023-01-02T22:11:26.297Z,10.44
2023-01-02T22:13:54.750Z,10.43
2023-01-02T22:16:26.017Z,10.35
2023-01-02T22:18:54.566Z,10.31
2023-01-02T22:21:22.931Z,10.32
2023-01-02T22:23:52.661Z,10.37
2023-01-02T22:26:21.079Z,10.41
2023-01-02T22:28:49.912Z,10.41
2023-01-02T22:31:18.374Z,10.35
2023-01-02T22:33:48.180Z,9.95
2023-01-02T22:36:19.268Z,10.30
2023-01-02T22:39:09.586Z,10.43
2023-01-02T22:41:41.050Z,10.29
2023-01-02T22:44:25.306Z,10.41
2023-01-02T22:46:56.517Z,10.45
2023-01-02T22:49:32.222Z,10.43
2023-01-02T22:52:07.857Z,10.26
2023-01-02T22:54:36.688Z,10.37
2023-01-02T22:57:11.754Z,10.22
2023-01-02T22:59:41.223Z,10.33
2023-01-02T23:02:15.964Z,10.27
2023-01-02T23:04:46.231Z,10.22
2023-01-02T23:07:24.328Z,10.13
2023-01-02T23:09:56.858Z,10.09
2023-01-02T23:12:25.861Z,10.06
2023-01-02T23:14:54.494Z,10.11
2023-01-02T23:17:47.664Z,10.11
2023-01-02T23:20:17.807Z,9.83
2023-01-02T23:22:48.322Z,9.83
2023-01-02T23:25:17.169Z,10.06
2023-01-02T23:27:45.511Z,10.07
2023-01-02T23:30:18.069Z,10.05
2023-01-02T23:32:46.890Z,10.03
2023-01-02T23:35:17.114Z,9.93
2023-01-02T23:37:45.577Z,10.00
2023-01-02T23:40:14.726Z,10.02
2023-01-02T23:42:43.127Z,10.01
2023-01-02T23:45:13.462Z,10.00
2023-01-02T23:47:41.840Z,10.02
2023-01-02T23:50:11.129Z,10.01
2023-01-02T23:52:40.893Z,10.00
2023-01-02T23:55:11.386Z,10.00
2023-01-02T23:57:39.869Z,10.00
